sensor_id;sensor_type;location;lat;lon;timestamp;temperature;humidity
19232;DHT22;9750;48.730;10.294;2023-05-17T00:00:21;8.50;90.90
19232;DHT22;9750;48.730;10.294;2023-05-17T00:02:49;8.50;91.00
19232;DHT22;9750;48.730;10.294;2023-05-17T00:05:16;8.50;91.10
19232;DHT22;9750;48.730;10.294;2023-05-17T00:07:43;8.40;91.10
19232;DHT22;9750;48.730;10.294;2023-05-17T00:10:11;8.40;91.10
19232;DHT22;9750;48.730;10.294;2023-05-17T00:12:39;8.30;91.10
19232;DHT22;9750;48.730;10.294;2023-05-17T00:15:08;8.30;91.20
19232;DHT22;9750;48.730;10.294;2023-05-17T00:17:35;8.30;91.20
19232;DHT22;9750;48.730;10.294;2023-05-17T00:20:03;8.30;91.20
19232;DHT22;9750;48.730;10.294;2023-05-17T00:22:31;8.30;91.20
19232;DHT22;9750;48.730;10.294;2023-05-17T00:24:58;8.30;91.20
19232;DHT22;9750;48.730;10.294;2023-05-17T00:27:25;8.20;91.30
19232;DHT22;9750;48.730;10.294;2023-05-17T00:29:53;8.20;91.30
19232;DHT22;9750;48.730;10.294;2023-05-17T00:32:21;8.20;91.30
19232;DHT22;9750;48.730;10.294;2023-05-17T00:34:48;8.20;91.40
19232;DHT22;9750;48.730;10.294;2023-05-17T00:37:16;8.20;91.40
19232;DHT22;9750;48.730;10.294;2023-05-17T00:39:43;8.20;91.40
19232;DHT22;9750;48.730;10.294;2023-05-17T00:42:10;8.30;91.40
19232;DHT22;9750;48.730;10.294;2023-05-17T00:44:38;8.30;91.40
19232;DHT22;9750;48.730;10.294;2023-05-17T00:47:06;8.20;91.40
19232;DHT22;9750;48.730;10.294;2023-05-17T00:49:34;8.20;91.50
19232;DHT22;9750;48.730;10.294;2023-05-17T00:52:02;8.10;91.50
19232;DHT22;9750;48.730;10.294;2023-05-17T00:54:29;8.10;91.50
19232;DHT22;9750;48.730;10.294;2023-05-17T00:56:57;8.10;91.60
19232;DHT22;9750;48.730;10.294;2023-05-17T00:59:27;8.10;91.70
19232;DHT22;9750;48.730;10.294;2023-05-17T01:01:55;8.10;91.70
19232;DHT22;9750;48.730;10.294;2023-05-17T01:04:23;8.10;91.60
19232;DHT22;9750;48.730;10.294;2023-05-17T01:06:52;8.10;91.50
19232;DHT22;9750;48.730;10.294;2023-05-17T01:09:19;8.20;91.50
19232;DHT22;9750;48.730;10.294;2023-05-17T01:11:53;8.20;91.50
19232;DHT22;9750;48.730;10.294;2023-05-17T01:14:30;8.20;91.50
19232;DHT22;9750;48.730;10.294;2023-05-17T01:17:05;8.20;91.40
19232;DHT22;9750;48.730;10.294;2023-05-17T01:19:59;8.20;91.40
19232;DHT22;9750;48.730;10.294;2023-05-17T01:22:51;8.20;91.60
19232;DHT22;9750;48.730;10.294;2023-05-17T01:25:38;8.20;91.40
19232;DHT22;9750;48.730;10.294;2023-05-17T01:28:09;8.20;91.40
19232;DHT22;9750;48.730;10.294;2023-05-17T01:30:38;8.20;91.50
19232;DHT22;9750;48.730;10.294;2023-05-17T01:33:08;8.30;91.50
19232;DHT22;9750;48.730;10.294;2023-05-17T01:35:35;8.20;91.60
19232;DHT22;9750;48.730;10.294;2023-05-17T01:38:02;8.20;91.60
19232;DHT22;9750;48.730;10.294;2023-05-17T01:40:32;8.20;91.80
19232;DHT22;9750;48.730;10.294;2023-05-17T01:43:06;8.10;91.90
19232;DHT22;9750;48.730;10.294;2023-05-17T01:45:40;8.20;92.00
19232;DHT22;9750;48.730;10.294;2023-05-17T01:48:19;8.10;92.10
19232;DHT22;9750;48.730;10.294;2023-05-17T01:50:48;8.10;92.20
19232;DHT22;9750;48.730;10.294;2023-05-17T01:53:20;8.10;92.30
19232;DHT22;9750;48.730;10.294;2023-05-17T01:55:53;8.00;92.70
19232;DHT22;9750;48.730;10.294;2023-05-17T02:01:47;8.00;92.50
19232;DHT22;9750;48.730;10.294;2023-05-17T02:04:14;8.00;92.50
19232;DHT22;9750;48.730;10.294;2023-05-17T02:06:41;7.90;92.60
19232;DHT22;9750;48.730;10.294;2023-05-17T02:09:09;7.90;92.60
19232;DHT22;9750;48.730;10.294;2023-05-17T02:11:36;7.90;92.60
19232;DHT22;9750;48.730;10.294;2023-05-17T02:14:03;7.80;92.70
19232;DHT22;9750;48.730;10.294;2023-05-17T02:16:30;7.80;92.80
19232;DHT22;9750;48.730;10.294;2023-05-17T02:18:59;7.80;92.80
19232;DHT22;9750;48.730;10.294;2023-05-17T02:21:26;7.70;92.80
19232;DHT22;9750;48.730;10.294;2023-05-17T02:23:53;7.70;92.80
19232;DHT22;9750;48.730;10.294;2023-05-17T02:29:43;7.60;92.80
19232;DHT22;9750;48.730;10.294;2023-05-17T02:32:10;7.70;92.70
19232;DHT22;9750;48.730;10.294;2023-05-17T02:34:39;7.70;92.60
19232;DHT22;9750;48.730;10.294;2023-05-17T02:37:06;7.60;92.70
19232;DHT22;9750;48.730;10.294;2023-05-17T02:39:33;7.60;92.70
19232;DHT22;9750;48.730;10.294;2023-05-17T02:42:00;7.60;92.60
19232;DHT22;9750;48.730;10.294;2023-05-17T02:44:28;7.60;92.60
19232;DHT22;9750;48.730;10.294;2023-05-17T02:46:55;7.60;92.70
19232;DHT22;9750;48.730;10.294;2023-05-17T02:49:22;7.60;92.70
19232;DHT22;9750;48.730;10.294;2023-05-17T02:51:51;7.50;92.70
19232;DHT22;9750;48.730;10.294;2023-05-17T02:54:18;7.50;92.70
19232;DHT22;9750;48.730;10.294;2023-05-17T02:56:45;7.50;92.70
19232;DHT22;9750;48.730;10.294;2023-05-17T02:59:13;7.50;92.70
19232;DHT22;9750;48.730;10.294;2023-05-17T03:01:40;7.50;92.80
19232;DHT22;9750;48.730;10.294;2023-05-17T03:04:07;7.40;92.70
19232;DHT22;9750;48.730;10.294;2023-05-17T03:07:13;7.40;92.60
19232;DHT22;9750;48.730;10.294;2023-05-17T03:09:40;7.50;92.60
19232;DHT22;9750;48.730;10.294;2023-05-17T03:12:08;7.50;92.90
19232;DHT22;9750;48.730;10.294;2023-05-17T03:14:36;7.40;92.60
19232;DHT22;9750;48.730;10.294;2023-05-17T03:17:03;7.40;92.70
19232;DHT22;9750;48.730;10.294;2023-05-17T03:19:30;7.40;92.70
19232;DHT22;9750;48.730;10.294;2023-05-17T03:21:58;7.30;92.70
19232;DHT22;9750;48.730;10.294;2023-05-17T03:24:26;7.30;92.70
19232;DHT22;9750;48.730;10.294;2023-05-17T03:26:53;7.20;92.70
19232;DHT22;9750;48.730;10.294;2023-05-17T03:29:21;7.20;92.80
19232;DHT22;9750;48.730;10.294;2023-05-17T03:31:48;7.20;92.80
19232;DHT22;9750;48.730;10.294;2023-05-17T03:34:15;7.20;92.80
19232;DHT22;9750;48.730;10.294;2023-05-17T03:36:43;7.20;92.80
19232;DHT22;9750;48.730;10.294;2023-05-17T03:39:10;7.20;92.70
19232;DHT22;9750;48.730;10.294;2023-05-17T03:41:39;7.20;92.70
19232;DHT22;9750;48.730;10.294;2023-05-17T03:44:06;7.20;92.90
19232;DHT22;9750;48.730;10.294;2023-05-17T03:46:34;7.10;92.90
19232;DHT22;9750;48.730;10.294;2023-05-17T03:49:01;7.20;92.90
19232;DHT22;9750;48.730;10.294;2023-05-17T03:51:29;7.20;92.80
19232;DHT22;9750;48.730;10.294;2023-05-17T03:53:58;7.20;92.90
19232;DHT22;9750;48.730;10.294;2023-05-17T03:56:25;7.10;92.90
19232;DHT22;9750;48.730;10.294;2023-05-17T03:58:54;7.10;93.00
19232;DHT22;9750;48.730;10.294;2023-05-17T04:01:21;7.10;93.00
19232;DHT22;9750;48.730;10.294;2023-05-17T04:03:48;7.10;93.00
19232;DHT22;9750;48.730;10.294;2023-05-17T04:06:15;7.10;93.00
19232;DHT22;9750;48.730;10.294;2023-05-17T04:08:43;7.20;93.00
19232;DHT22;9750;48.730;10.294;2023-05-17T04:11:10;7.10;93.30
19232;DHT22;9750;48.730;10.294;2023-05-17T04:13:38;7.10;93.10
19232;DHT22;9750;48.730;10.294;2023-05-17T04:16:08;7.00;93.30
19232;DHT22;9750;48.730;10.294;2023-05-17T04:18:36;7.00;93.30
19232;DHT22;9750;48.730;10.294;2023-05-17T04:21:04;7.00;93.30
19232;DHT22;9750;48.730;10.294;2023-05-17T04:23:33;7.00;93.40
19232;DHT22;9750;48.730;10.294;2023-05-17T04:26:00;7.00;93.40
19232;DHT22;9750;48.730;10.294;2023-05-17T04:28:29;7.00;93.40
19232;DHT22;9750;48.730;10.294;2023-05-17T04:30:56;7.00;93.50
19232;DHT22;9750;48.730;10.294;2023-05-17T04:33:25;7.00;93.50
19232;DHT22;9750;48.730;10.294;2023-05-17T04:35:53;7.00;93.40
19232;DHT22;9750;48.730;10.294;2023-05-17T04:38:21;7.10;93.50
19232;DHT22;9750;48.730;10.294;2023-05-17T04:40:49;7.10;93.50
19232;DHT22;9750;48.730;10.294;2023-05-17T04:43:17;7.10;93.50
19232;DHT22;9750;48.730;10.294;2023-05-17T04:45:44;7.10;93.50
19232;DHT22;9750;48.730;10.294;2023-05-17T04:48:11;7.10;93.50
19232;DHT22;9750;48.730;10.294;2023-05-17T04:50:44;7.10;93.60
19232;DHT22;9750;48.730;10.294;2023-05-17T04:53:11;7.10;93.70
19232;DHT22;9750;48.730;10.294;2023-05-17T04:55:40;7.10;93.70
19232;DHT22;9750;48.730;10.294;2023-05-17T04:58:07;7.10;93.70
19232;DHT22;9750;48.730;10.294;2023-05-17T05:00:34;7.10;93.70
19232;DHT22;9750;48.730;10.294;2023-05-17T05:03:02;7.10;93.80
19232;DHT22;9750;48.730;10.294;2023-05-17T05:05:30;7.10;93.90
19232;DHT22;9750;48.730;10.294;2023-05-17T05:07:59;7.10;93.80
19232;DHT22;9750;48.730;10.294;2023-05-17T05:10:26;7.20;93.90
19232;DHT22;9750;48.730;10.294;2023-05-17T05:12:54;7.20;93.90
19232;DHT22;9750;48.730;10.294;2023-05-17T05:15:21;7.20;93.80
19232;DHT22;9750;48.730;10.294;2023-05-17T05:17:48;7.30;93.80
19232;DHT22;9750;48.730;10.294;2023-05-17T05:20:16;7.30;93.90
19232;DHT22;9750;48.730;10.294;2023-05-17T05:22:43;7.30;93.90
19232;DHT22;9750;48.730;10.294;2023-05-17T05:25:12;7.30;93.90
19232;DHT22;9750;48.730;10.294;2023-05-17T05:30:41;7.30;94.10
19232;DHT22;9750;48.730;10.294;2023-05-17T05:33:09;7.40;94.10
19232;DHT22;9750;48.730;10.294;2023-05-17T05:35:36;7.40;94.00
19232;DHT22;9750;48.730;10.294;2023-05-17T05:38:04;7.40;93.90
19232;DHT22;9750;48.730;10.294;2023-05-17T05:40:32;7.40;94.30
19232;DHT22;9750;48.730;10.294;2023-05-17T05:43:00;7.50;94.30
19232;DHT22;9750;48.730;10.294;2023-05-17T05:45:27;7.50;94.40
19232;DHT22;9750;48.730;10.294;2023-05-17T05:47:54;7.60;94.30
19232;DHT22;9750;48.730;10.294;2023-05-17T05:50:21;7.60;94.40
19232;DHT22;9750;48.730;10.294;2023-05-17T05:52:49;7.60;94.10
19232;DHT22;9750;48.730;10.294;2023-05-17T05:55:16;7.70;94.10
19232;DHT22;9750;48.730;10.294;2023-05-17T05:57:45;7.70;94.10
19232;DHT22;9750;48.730;10.294;2023-05-17T06:00:13;7.70;94.30
19232;DHT22;9750;48.730;10.294;2023-05-17T06:02:40;7.80;94.50
19232;DHT22;9750;48.730;10.294;2023-05-17T06:05:08;7.80;94.20
19232;DHT22;9750;48.730;10.294;2023-05-17T06:07:35;7.90;94.10
19232;DHT22;9750;48.730;10.294;2023-05-17T06:10:03;7.90;94.00
19232;DHT22;9750;48.730;10.294;2023-05-17T06:12:30;8.00;94.20
19232;DHT22;9750;48.730;10.294;2023-05-17T06:14:59;8.00;94.10
19232;DHT22;9750;48.730;10.294;2023-05-17T06:17:57;8.10;93.60
19232;DHT22;9750;48.730;10.294;2023-05-17T06:20:25;8.10;93.50
19232;DHT22;9750;48.730;10.294;2023-05-17T06:22:52;8.20;93.90
19232;DHT22;9750;48.730;10.294;2023-05-17T06:25:19;8.20;94.20
19232;DHT22;9750;48.730;10.294;2023-05-17T06:27:46;8.30;94.30
19232;DHT22;9750;48.730;10.294;2023-05-17T06:30:15;8.40;93.90
19232;DHT22;9750;48.730;10.294;2023-05-17T06:32:42;8.40;94.00
19232;DHT22;9750;48.730;10.294;2023-05-17T06:35:10;8.50;93.60
19232;DHT22;9750;48.730;10.294;2023-05-17T06:37:37;8.50;93.50
19232;DHT22;9750;48.730;10.294;2023-05-17T06:40:06;8.50;93.50
19232;DHT22;9750;48.730;10.294;2023-05-17T06:42:35;8.60;93.20
19232;DHT22;9750;48.730;10.294;2023-05-17T06:45:02;8.70;93.50
19232;DHT22;9750;48.730;10.294;2023-05-17T06:47:31;8.70;93.50
19232;DHT22;9750;48.730;10.294;2023-05-17T06:49:59;8.80;93.60
19232;DHT22;9750;48.730;10.294;2023-05-17T06:52:26;8.90;92.90
19232;DHT22;9750;48.730;10.294;2023-05-17T06:54:53;9.00;92.90
19232;DHT22;9750;48.730;10.294;2023-05-17T06:57:21;9.10;92.60
19232;DHT22;9750;48.730;10.294;2023-05-17T06:59:49;9.10;92.90
19232;DHT22;9750;48.730;10.294;2023-05-17T07:02:16;9.10;92.30
19232;DHT22;9750;48.730;10.294;2023-05-17T07:04:45;9.10;92.90
19232;DHT22;9750;48.730;10.294;2023-05-17T07:07:12;9.20;92.70
19232;DHT22;9750;48.730;10.294;2023-05-17T07:09:40;9.20;92.20
19232;DHT22;9750;48.730;10.294;2023-05-17T07:12:07;9.20;92.50
19232;DHT22;9750;48.730;10.294;2023-05-17T07:14:34;9.20;92.50
19232;DHT22;9750;48.730;10.294;2023-05-17T07:17:02;9.30;92.70
19232;DHT22;9750;48.730;10.294;2023-05-17T07:19:29;9.30;92.50
19232;DHT22;9750;48.730;10.294;2023-05-17T07:21:58;9.40;92.50
19232;DHT22;9750;48.730;10.294;2023-05-17T07:24:25;9.40;92.90
19232;DHT22;9750;48.730;10.294;2023-05-17T07:26:52;9.40;92.30
19232;DHT22;9750;48.730;10.294;2023-05-17T07:29:20;9.50;92.20
19232;DHT22;9750;48.730;10.294;2023-05-17T07:31:47;9.60;92.20
19232;DHT22;9750;48.730;10.294;2023-05-17T07:34:14;9.70;91.70
19232;DHT22;9750;48.730;10.294;2023-05-17T07:36:42;9.90;91.80
19232;DHT22;9750;48.730;10.294;2023-05-17T07:39:10;10.00;91.40
19232;DHT22;9750;48.730;10.294;2023-05-17T07:41:38;10.10;91.20
19232;DHT22;9750;48.730;10.294;2023-05-17T07:44:05;10.10;90.80
19232;DHT22;9750;48.730;10.294;2023-05-17T07:46:32;10.10;91.70
19232;DHT22;9750;48.730;10.294;2023-05-17T07:49:00;10.10;91.50
19232;DHT22;9750;48.730;10.294;2023-05-17T07:51:27;10.10;90.80
19232;DHT22;9750;48.730;10.294;2023-05-17T07:53:54;10.10;91.30
19232;DHT22;9750;48.730;10.294;2023-05-17T07:56:23;10.20;91.10
19232;DHT22;9750;48.730;10.294;2023-05-17T07:58:50;10.30;91.10
19232;DHT22;9750;48.730;10.294;2023-05-17T08:01:17;10.50;90.50
19232;DHT22;9750;48.730;10.294;2023-05-17T08:03:45;10.60;90.00
19232;DHT22;9750;48.730;10.294;2023-05-17T08:06:14;10.70;89.00
19232;DHT22;9750;48.730;10.294;2023-05-17T08:08:41;10.70;88.40
19232;DHT22;9750;48.730;10.294;2023-05-17T08:11:10;10.70;88.40
19232;DHT22;9750;48.730;10.294;2023-05-17T08:13:38;10.90;89.50
19232;DHT22;9750;48.730;10.294;2023-05-17T08:16:06;11.00;88.70
19232;DHT22;9750;48.730;10.294;2023-05-17T08:18:34;11.00;87.30
19232;DHT22;9750;48.730;10.294;2023-05-17T08:21:02;11.10;87.60
19232;DHT22;9750;48.730;10.294;2023-05-17T08:23:29;11.10;87.40
19232;DHT22;9750;48.730;10.294;2023-05-17T08:25:57;11.00;87.50
19232;DHT22;9750;48.730;10.294;2023-05-17T08:28:24;11.10;87.10
19232;DHT22;9750;48.730;10.294;2023-05-17T08:30:53;11.10;87.70
19232;DHT22;9750;48.730;10.294;2023-05-17T08:33:20;11.10;85.90
19232;DHT22;9750;48.730;10.294;2023-05-17T08:35:48;10.90;85.10
19232;DHT22;9750;48.730;10.294;2023-05-17T08:41:09;11.10;85.50
19232;DHT22;9750;48.730;10.294;2023-05-17T08:43:36;10.90;85.40
19232;DHT22;9750;48.730;10.294;2023-05-17T08:46:05;10.90;86.40
19232;DHT22;9750;48.730;10.294;2023-05-17T08:48:34;10.90;86.90
19232;DHT22;9750;48.730;10.294;2023-05-17T08:51:07;11.10;86.80
19232;DHT22;9750;48.730;10.294;2023-05-17T08:53:34;11.10;87.10
19232;DHT22;9750;48.730;10.294;2023-05-17T08:56:02;11.20;86.70
19232;DHT22;9750;48.730;10.294;2023-05-17T08:58:33;11.30;86.50
19232;DHT22;9750;48.730;10.294;2023-05-17T09:01:02;11.40;84.40
19232;DHT22;9750;48.730;10.294;2023-05-17T09:03:34;11.50;87.30
19232;DHT22;9750;48.730;10.294;2023-05-17T09:06:02;11.60;85.20
19232;DHT22;9750;48.730;10.294;2023-05-17T09:08:29;11.70;84.70
19232;DHT22;9750;48.730;10.294;2023-05-17T09:10:57;11.80;83.20
19232;DHT22;9750;48.730;10.294;2023-05-17T09:13:25;11.80;84.10
19232;DHT22;9750;48.730;10.294;2023-05-17T09:15:52;11.90;84.90
19232;DHT22;9750;48.730;10.294;2023-05-17T09:18:28;11.80;83.80
19232;DHT22;9750;48.730;10.294;2023-05-17T09:21:01;11.60;81.00
19232;DHT22;9750;48.730;10.294;2023-05-17T09:23:30;11.50;83.10
19232;DHT22;9750;48.730;10.294;2023-05-17T09:26:03;11.50;83.70
19232;DHT22;9750;48.730;10.294;2023-05-17T09:28:36;11.50;85.40
19232;DHT22;9750;48.730;10.294;2023-05-17T09:31:05;11.60;83.70
19232;DHT22;9750;48.730;10.294;2023-05-17T09:33:33;11.70;84.20
19232;DHT22;9750;48.730;10.294;2023-05-17T09:36:02;11.90;84.90
19232;DHT22;9750;48.730;10.294;2023-05-17T09:38:29;12.10;82.70
19232;DHT22;9750;48.730;10.294;2023-05-17T09:40:56;12.30;81.80
19232;DHT22;9750;48.730;10.294;2023-05-17T09:43:24;12.50;81.40
19232;DHT22;9750;48.730;10.294;2023-05-17T09:45:55;12.60;82.10
19232;DHT22;9750;48.730;10.294;2023-05-17T09:48:24;12.80;80.20
19232;DHT22;9750;48.730;10.294;2023-05-17T09:50:52;12.90;80.00
19232;DHT22;9750;48.730;10.294;2023-05-17T09:53:28;12.90;80.20
19232;DHT22;9750;48.730;10.294;2023-05-17T09:55:56;12.80;82.10
19232;DHT22;9750;48.730;10.294;2023-05-17T09:58:31;12.90;81.00
19232;DHT22;9750;48.730;10.294;2023-05-17T10:01:00;12.90;78.80
19232;DHT22;9750;48.730;10.294;2023-05-17T10:03:30;13.00;78.60
19232;DHT22;9750;48.730;10.294;2023-05-17T10:06:00;12.90;78.10
19232;DHT22;9750;48.730;10.294;2023-05-17T10:08:30;12.90;78.80
19232;DHT22;9750;48.730;10.294;2023-05-17T10:11:02;12.80;80.50
19232;DHT22;9750;48.730;10.294;2023-05-17T10:13:33;12.70;82.60
19232;DHT22;9750;48.730;10.294;2023-05-17T10:16:02;12.70;82.80
19232;DHT22;9750;48.730;10.294;2023-05-17T10:18:30;12.80;81.80
19232;DHT22;9750;48.730;10.294;2023-05-17T10:20:58;12.80;81.50
19232;DHT22;9750;48.730;10.294;2023-05-17T10:23:27;12.70;80.30
19232;DHT22;9750;48.730;10.294;2023-05-17T10:25:58;12.70;84.20
19232;DHT22;9750;48.730;10.294;2023-05-17T10:28:26;12.60;82.00
19232;DHT22;9750;48.730;10.294;2023-05-17T10:30:55;12.60;82.70
19232;DHT22;9750;48.730;10.294;2023-05-17T10:33:23;12.70;82.50
19232;DHT22;9750;48.730;10.294;2023-05-17T10:35:54;12.80;83.00
19232;DHT22;9750;48.730;10.294;2023-05-17T10:38:25;13.10;81.60
19232;DHT22;9750;48.730;10.294;2023-05-17T10:40:53;13.40;80.30
19232;DHT22;9750;48.730;10.294;2023-05-17T10:43:23;13.50;79.40
19232;DHT22;9750;48.730;10.294;2023-05-17T10:45:51;13.70;78.50
19232;DHT22;9750;48.730;10.294;2023-05-17T10:48:19;13.80;80.30
19232;DHT22;9750;48.730;10.294;2023-05-17T10:50:48;13.80;78.10
19232;DHT22;9750;48.730;10.294;2023-05-17T10:53:15;13.90;77.90
19232;DHT22;9750;48.730;10.294;2023-05-17T10:55:43;13.90;76.20
19232;DHT22;9750;48.730;10.294;2023-05-17T10:58:16;14.00;76.50
19232;DHT22;9750;48.730;10.294;2023-05-17T11:00:47;14.00;79.00
19232;DHT22;9750;48.730;10.294;2023-05-17T11:03:16;13.80;79.00
19232;DHT22;9750;48.730;10.294;2023-05-17T11:08:32;13.70;79.40
19232;DHT22;9750;48.730;10.294;2023-05-17T11:11:10;13.80;80.20
19232;DHT22;9750;48.730;10.294;2023-05-17T11:13:46;14.10;79.40
19232;DHT22;9750;48.730;10.294;2023-05-17T11:16:20;14.10;76.60
19232;DHT22;9750;48.730;10.294;2023-05-17T11:18:49;14.20;78.50
19232;DHT22;9750;48.730;10.294;2023-05-17T11:21:17;14.10;78.70
19232;DHT22;9750;48.730;10.294;2023-05-17T11:23:46;14.10;78.90
19232;DHT22;9750;48.730;10.294;2023-05-17T11:26:20;13.90;80.50
19232;DHT22;9750;48.730;10.294;2023-05-17T11:28:48;13.90;81.10
19232;DHT22;9750;48.730;10.294;2023-05-17T11:31:15;13.90;81.90
19232;DHT22;9750;48.730;10.294;2023-05-17T11:33:44;13.80;78.00
19232;DHT22;9750;48.730;10.294;2023-05-17T11:36:18;13.70;80.20
19232;DHT22;9750;48.730;10.294;2023-05-17T11:38:49;13.80;80.10
19232;DHT22;9750;48.730;10.294;2023-05-17T11:41:18;14.00;80.50
19232;DHT22;9750;48.730;10.294;2023-05-17T11:43:47;14.20;78.00
19232;DHT22;9750;48.730;10.294;2023-05-17T11:46:21;14.30;79.80
19232;DHT22;9750;48.730;10.294;2023-05-17T11:48:51;14.20;78.60
19232;DHT22;9750;48.730;10.294;2023-05-17T11:51:19;14.20;78.00
19232;DHT22;9750;48.730;10.294;2023-05-17T11:53:46;14.30;78.70
19232;DHT22;9750;48.730;10.294;2023-05-17T11:56:14;14.10;77.00
19232;DHT22;9750;48.730;10.294;2023-05-17T11:58:43;14.10;77.80
19232;DHT22;9750;48.730;10.294;2023-05-17T12:01:11;14.20;77.50
19232;DHT22;9750;48.730;10.294;2023-05-17T12:03:38;14.40;77.50
19232;DHT22;9750;48.730;10.294;2023-05-17T12:06:08;14.50;74.90
19232;DHT22;9750;48.730;10.294;2023-05-17T12:08:38;14.50;75.20
19232;DHT22;9750;48.730;10.294;2023-05-17T12:11:09;14.40;76.80
19232;DHT22;9750;48.730;10.294;2023-05-17T12:13:38;14.50;76.10
19232;DHT22;9750;48.730;10.294;2023-05-17T12:16:08;14.50;75.20
19232;DHT22;9750;48.730;10.294;2023-05-17T12:18:38;14.50;74.70
19232;DHT22;9750;48.730;10.294;2023-05-17T12:21:11;14.50;74.80
19232;DHT22;9750;48.730;10.294;2023-05-17T12:23:40;14.50;75.40
19232;DHT22;9750;48.730;10.294;2023-05-17T12:26:09;14.50;73.50
19232;DHT22;9750;48.730;10.294;2023-05-17T12:28:37;14.50;75.70
19232;DHT22;9750;48.730;10.294;2023-05-17T12:31:06;14.50;77.30
19232;DHT22;9750;48.730;10.294;2023-05-17T12:33:37;14.40;78.70
19232;DHT22;9750;48.730;10.294;2023-05-17T12:36:08;14.30;79.90
19232;DHT22;9750;48.730;10.294;2023-05-17T12:38:38;14.20;80.20
19232;DHT22;9750;48.730;10.294;2023-05-17T12:41:06;14.30;79.80
19232;DHT22;9750;48.730;10.294;2023-05-17T12:43:36;14.20;80.40
19232;DHT22;9750;48.730;10.294;2023-05-17T12:46:06;14.20;80.90
19232;DHT22;9750;48.730;10.294;2023-05-17T12:48:34;14.20;79.50
19232;DHT22;9750;48.730;10.294;2023-05-17T12:51:07;14.30;81.20
19232;DHT22;9750;48.730;10.294;2023-05-17T12:53:35;14.30;79.90
19232;DHT22;9750;48.730;10.294;2023-05-17T12:56:03;14.30;79.20
19232;DHT22;9750;48.730;10.294;2023-05-17T12:58:30;14.30;78.80
19232;DHT22;9750;48.730;10.294;2023-05-17T13:00:59;14.30;80.20
19232;DHT22;9750;48.730;10.294;2023-05-17T13:03:26;14.30;81.20
19232;DHT22;9750;48.730;10.294;2023-05-17T13:05:58;14.20;80.90
19232;DHT22;9750;48.730;10.294;2023-05-17T13:08:27;14.20;81.40
19232;DHT22;9750;48.730;10.294;2023-05-17T13:11:07;14.20;81.00
19232;DHT22;9750;48.730;10.294;2023-05-17T13:13:35;14.20;79.80
19232;DHT22;9750;48.730;10.294;2023-05-17T13:16:02;14.20;79.30
19232;DHT22;9750;48.730;10.294;2023-05-17T13:18:30;14.00;79.20
19232;DHT22;9750;48.730;10.294;2023-05-17T13:21:00;14.10;79.20
19232;DHT22;9750;48.730;10.294;2023-05-17T13:23:30;14.10;80.00
19232;DHT22;9750;48.730;10.294;2023-05-17T13:25:57;14.20;79.70
19232;DHT22;9750;48.730;10.294;2023-05-17T13:28:24;14.30;80.40
19232;DHT22;9750;48.730;10.294;2023-05-17T13:30:51;14.20;80.70
19232;DHT22;9750;48.730;10.294;2023-05-17T13:33:19;14.20;81.00
19232;DHT22;9750;48.730;10.294;2023-05-17T13:35:46;14.20;80.80
19232;DHT22;9750;48.730;10.294;2023-05-17T13:38:13;14.10;81.50
19232;DHT22;9750;48.730;10.294;2023-05-17T13:40:42;14.00;80.90
19232;DHT22;9750;48.730;10.294;2023-05-17T13:43:09;13.90;82.30
19232;DHT22;9750;48.730;10.294;2023-05-17T13:45:36;14.00;83.00
19232;DHT22;9750;48.730;10.294;2023-05-17T13:48:03;14.10;81.70
19232;DHT22;9750;48.730;10.294;2023-05-17T13:50:31;14.00;81.10
19232;DHT22;9750;48.730;10.294;2023-05-17T13:52:58;13.90;82.70
19232;DHT22;9750;48.730;10.294;2023-05-17T13:55:26;13.90;81.40
19232;DHT22;9750;48.730;10.294;2023-05-17T13:57:55;13.90;81.10
19232;DHT22;9750;48.730;10.294;2023-05-17T14:00:22;13.90;79.90
19232;DHT22;9750;48.730;10.294;2023-05-17T14:02:49;13.90;79.80
19232;DHT22;9750;48.730;10.294;2023-05-17T14:05:17;13.90;79.60
19232;DHT22;9750;48.730;10.294;2023-05-17T14:07:44;13.90;80.40
19232;DHT22;9750;48.730;10.294;2023-05-17T14:10:12;14.00;79.90
19232;DHT22;9750;48.730;10.294;2023-05-17T14:12:39;14.10;79.80
19232;DHT22;9750;48.730;10.294;2023-05-17T14:15:10;14.00;78.50
19232;DHT22;9750;48.730;10.294;2023-05-17T14:17:37;14.00;79.70
19232;DHT22;9750;48.730;10.294;2023-05-17T14:20:05;14.00;80.50
19232;DHT22;9750;48.730;10.294;2023-05-17T14:22:33;13.90;81.00
19232;DHT22;9750;48.730;10.294;2023-05-17T14:25:00;13.90;81.30
19232;DHT22;9750;48.730;10.294;2023-05-17T14:30:35;13.90;81.70
19232;DHT22;9750;48.730;10.294;2023-05-17T14:33:02;13.90;81.40
19232;DHT22;9750;48.730;10.294;2023-05-17T14:35:30;14.00;81.70
19232;DHT22;9750;48.730;10.294;2023-05-17T14:37:57;14.00;81.30
19232;DHT22;9750;48.730;10.294;2023-05-17T14:40:24;13.90;80.70
19232;DHT22;9750;48.730;10.294;2023-05-17T14:42:51;13.90;81.70
19232;DHT22;9750;48.730;10.294;2023-05-17T14:45:19;13.80;80.70
19232;DHT22;9750;48.730;10.294;2023-05-17T14:47:48;13.80;81.00
19232;DHT22;9750;48.730;10.294;2023-05-17T14:50:16;13.80;81.30
19232;DHT22;9750;48.730;10.294;2023-05-17T14:52:43;13.80;81.80
19232;DHT22;9750;48.730;10.294;2023-05-17T14:55:10;13.80;81.80
19232;DHT22;9750;48.730;10.294;2023-05-17T14:57:41;13.60;82.30
19232;DHT22;9750;48.730;10.294;2023-05-17T15:00:09;13.40;83.20
19232;DHT22;9750;48.730;10.294;2023-05-17T15:02:37;13.30;84.00
19232;DHT22;9750;48.730;10.294;2023-05-17T15:05:07;13.20;84.90
19232;DHT22;9750;48.730;10.294;2023-05-17T15:07:35;13.00;85.60
19232;DHT22;9750;48.730;10.294;2023-05-17T15:10:03;13.00;86.20
19232;DHT22;9750;48.730;10.294;2023-05-17T15:12:30;12.90;86.50
19232;DHT22;9750;48.730;10.294;2023-05-17T15:14:58;12.80;85.70
19232;DHT22;9750;48.730;10.294;2023-05-17T15:17:26;12.70;85.80
19232;DHT22;9750;48.730;10.294;2023-05-17T15:19:53;12.60;86.20
19232;DHT22;9750;48.730;10.294;2023-05-17T15:22:21;12.60;86.40
19232;DHT22;9750;48.730;10.294;2023-05-17T15:24:49;12.50;85.70
19232;DHT22;9750;48.730;10.294;2023-05-17T15:27:18;12.50;85.90
19232;DHT22;9750;48.730;10.294;2023-05-17T15:29:46;12.40;86.80
19232;DHT22;9750;48.730;10.294;2023-05-17T15:32:13;12.40;86.90
19232;DHT22;9750;48.730;10.294;2023-05-17T15:34:40;12.40;87.00
19232;DHT22;9750;48.730;10.294;2023-05-17T15:37:07;12.40;87.10
19232;DHT22;9750;48.730;10.294;2023-05-17T15:39:36;12.50;86.60
19232;DHT22;9750;48.730;10.294;2023-05-17T15:42:04;12.50;86.60
19232;DHT22;9750;48.730;10.294;2023-05-17T15:44:31;12.50;86.80
19232;DHT22;9750;48.730;10.294;2023-05-17T15:46:58;12.50;86.20
19232;DHT22;9750;48.730;10.294;2023-05-17T15:49:26;12.50;86.60
19232;DHT22;9750;48.730;10.294;2023-05-17T15:51:53;12.50;86.50
19232;DHT22;9750;48.730;10.294;2023-05-17T15:54:20;12.50;86.80
19232;DHT22;9750;48.730;10.294;2023-05-17T15:56:49;12.50;85.30
19232;DHT22;9750;48.730;10.294;2023-05-17T15:59:16;12.60;85.20
19232;DHT22;9750;48.730;10.294;2023-05-17T16:01:43;12.70;84.60
19232;DHT22;9750;48.730;10.294;2023-05-17T16:04:11;12.70;83.60